sensor_id;sensor_type;location;lat;lon;timestamp;temperature;humidity
22674;DHT22;11504;43.334;21.918;2022-09-28T00:02:02;15.3;100.0
22674;DHT22;11504;43.334;21.918;2022-09-28T00:06:39;15.3;100.0
22674;DHT22;11504;43.334;21.918;2022-09-28T00:11:19;15.3;100.0
22674;DHT22;11504;43.334;21.918;2022-09-28T00:16:05;15.3;100.0
22674;DHT22;11504;43.334;21.918;2022-09-28T00:21:02;15.4;100.0
22674;DHT22;11504;43.334;21.918;2022-09-28T00:25:46;15.4;100.0
22674;DHT22;11504;43.334;21.918;2022-09-28T00:30:23;15.5;100.0
22674;DHT22;11504;43.334;21.918;2022-09-28T00:35:00;15.5;100.0
22674;DHT22;11504;43.334;21.918;2022-09-28T00:39:39;15.5;100.0
22674;DHT22;11504;43.334;21.918;2022-09-28T00:44:39;15.3;100.0
22674;DHT22;11504;43.334;21.918;2022-09-28T00:49:36;15.3;100.0
22674;DHT22;11504;43.334;21.918;2022-09-28T00:54:22;15.1;100.0
22674;DHT22;11504;43.334;21.918;2022-09-28T00:59:01;15.1;100.0
22674;DHT22;11504;43.334;21.918;2022-09-28T01:03:39;15.0;100.0
22674;DHT22;11504;43.334;21.918;2022-09-28T01:08:20;15.0;100.0
22674;DHT22;11504;43.334;21.918;2022-09-28T01:13:02;15.0;100.0
22674;DHT22;11504;43.334;21.918;2022-09-28T01:18:07;15.0;100.0
22674;DHT22;11504;43.334;21.918;2022-09-28T01:24:13;15.1;100.0
22674;DHT22;11504;43.334;21.918;2022-09-28T01:29:42;15.1;100.0
22674;DHT22;11504;43.334;21.918;2022-09-28T01:34:57;15.2;100.0
22674;DHT22;11504;43.334;21.918;2022-09-28T01:39:57;15.0;100.0
22674;DHT22;11504;43.334;21.918;2022-09-28T01:44:50;15.0;100.0
22674;DHT22;11504;43.334;21.918;2022-09-28T01:50:03;14.8;100.0
22674;DHT22;11504;43.334;21.918;2022-09-28T01:55:12;14.8;100.0
22674;DHT22;11504;43.334;21.918;2022-09-28T02:00:14;14.6;100.0
22674;DHT22;11504;43.334;21.918;2022-09-28T02:05:05;14.6;100.0
22674;DHT22;11504;43.334;21.918;2022-09-28T02:10:02;14.5;100.0
22674;DHT22;11504;43.334;21.918;2022-09-28T02:15:05;14.5;100.0
22674;DHT22;11504;43.334;21.918;2022-09-28T02:19:49;14.5;100.0
22674;DHT22;11504;43.334;21.918;2022-09-28T02:24:38;14.5;100.0
22674;DHT22;11504;43.334;21.918;2022-09-28T02:29:28;14.5;100.0
22674;DHT22;11504;43.334;21.918;2022-09-28T02:34:05;14.5;100.0
22674;DHT22;11504;43.334;21.918;2022-09-28T02:38:42;14.5;100.0
22674;DHT22;11504;43.334;21.918;2022-09-28T02:43:30;14.4;100.0
22674;DHT22;11504;43.334;21.918;2022-09-28T02:49:06;14.4;100.0
22674;DHT22;11504;43.334;21.918;2022-09-28T02:54:52;14.4;100.0
22674;DHT22;11504;43.334;21.918;2022-09-28T03:00:22;14.4;100.0
22674;DHT22;11504;43.334;21.918;2022-09-28T03:05:18;14.4;100.0
22674;DHT22;11504;43.334;21.918;2022-09-28T03:10:34;14.5;100.0
22674;DHT22;11504;43.334;21.918;2022-09-28T03:15:27;14.5;100.0
22674;DHT22;11504;43.334;21.918;2022-09-28T03:20:10;14.4;100.0
22674;DHT22;11504;43.334;21.918;2022-09-28T03:24:47;14.4;100.0
22674;DHT22;11504;43.334;21.918;2022-09-28T03:29:23;14.4;100.0
22674;DHT22;11504;43.334;21.918;2022-09-28T03:34:00;14.4;100.0
22674;DHT22;11504;43.334;21.918;2022-09-28T03:38:37;14.4;100.0
22674;DHT22;11504;43.334;21.918;2022-09-28T03:43:14;14.4;100.0
22674;DHT22;11504;43.334;21.918;2022-09-28T03:47:51;14.4;100.0
22674;DHT22;11504;43.334;21.918;2022-09-28T03:52:28;14.3;100.0
22674;DHT22;11504;43.334;21.918;2022-09-28T03:57:06;14.3;100.0
22674;DHT22;11504;43.334;21.918;2022-09-28T04:01:42;14.4;100.0
22674;DHT22;11504;43.334;21.918;2022-09-28T04:06:20;14.4;100.0
22674;DHT22;11504;43.334;21.918;2022-09-28T04:11:00;14.5;100.0
22674;DHT22;11504;43.334;21.918;2022-09-28T04:15:38;14.5;100.0
22674;DHT22;11504;43.334;21.918;2022-09-28T04:20:16;14.6;100.0
22674;DHT22;11504;43.334;21.918;2022-09-28T04:24:53;14.6;100.0
22674;DHT22;11504;43.334;21.918;2022-09-28T04:29:30;14.6;100.0
22674;DHT22;11504;43.334;21.918;2022-09-28T04:34:10;14.7;100.0
22674;DHT22;11504;43.334;21.918;2022-09-28T04:38:52;14.7;100.0
22674;DHT22;11504;43.334;21.918;2022-09-28T04:43:29;14.8;100.0
22674;DHT22;11504;43.334;21.918;2022-09-28T04:48:06;14.8;100.0
22674;DHT22;11504;43.334;21.918;2022-09-28T04:52:43;14.8;100.0
22674;DHT22;11504;43.334;21.918;2022-09-28T04:57:19;14.8;100.0
22674;DHT22;11504;43.334;21.918;2022-09-28T05:01:55;14.9;100.0
22674;DHT22;11504;43.334;21.918;2022-09-28T05:06:31;14.9;100.0
22674;DHT22;11504;43.334;21.918;2022-09-28T05:11:13;15.0;100.0
22674;DHT22;11504;43.334;21.918;2022-09-28T05:15:54;15.0;100.0
22674;DHT22;11504;43.334;21.918;2022-09-28T05:20:40;15.2;100.0
22674;DHT22;11504;43.334;21.918;2022-09-28T05:25:17;15.2;100.0
22674;DHT22;11504;43.334;21.918;2022-09-28T05:29:54;15.2;100.0
22674;DHT22;11504;43.334;21.918;2022-09-28T05:34:31;15.4;100.0
22674;DHT22;11504;43.334;21.918;2022-09-28T05:39:08;15.4;100.0
22674;DHT22;11504;43.334;21.918;2022-09-28T05:43:45;15.9;100.0
22674;DHT22;11504;43.334;21.918;2022-09-28T05:48:22;15.9;100.0
22674;DHT22;11504;43.334;21.918;2022-09-28T05:53:04;16.4;100.0
22674;DHT22;11504;43.334;21.918;2022-09-28T05:57:44;16.4;100.0
22674;DHT22;11504;43.334;21.918;2022-09-28T06:02:21;17.4;100.0
22674;DHT22;11504;43.334;21.918;2022-09-28T06:06:58;17.4;100.0
22674;DHT22;11504;43.334;21.918;2022-09-28T06:11:35;18.4;100.0
22674;DHT22;11504;43.334;21.918;2022-09-28T06:16:14;18.4;100.0
22674;DHT22;11504;43.334;21.918;2022-09-28T06:20:51;21.2;100.0
22674;DHT22;11504;43.334;21.918;2022-09-28T06:25:28;21.2;100.0
22674;DHT22;11504;43.334;21.918;2022-09-28T06:30:06;24.0;100.0
22674;DHT22;11504;43.334;21.918;2022-09-28T06:34:46;24.0;100.0
22674;DHT22;11504;43.334;21.918;2022-09-28T06:39:22;24.0;100.0
22674;DHT22;11504;43.334;21.918;2022-09-28T06:44:00;23.8;100.0
22674;DHT22;11504;43.334;21.918;2022-09-28T06:48:38;23.8;100.0
22674;DHT22;11504;43.334;21.918;2022-09-28T06:53:16;23.6;100.0
22674;DHT22;11504;43.334;21.918;2022-09-28T06:57:59;23.6;100.0
22674;DHT22;11504;43.334;21.918;2022-09-28T07:02:47;21.8;100.0
22674;DHT22;11504;43.334;21.918;2022-09-28T07:07:24;21.8;100.0
22674;DHT22;11504;43.334;21.918;2022-09-28T07:12:01;19.9;100.0
22674;DHT22;11504;43.334;21.918;2022-09-28T07:16:39;19.9;100.0
22674;DHT22;11504;43.334;21.918;2022-09-28T07:21:16;19.6;100.0
22674;DHT22;11504;43.334;21.918;2022-09-28T07:25:52;19.6;100.0
22674;DHT22;11504;43.334;21.918;2022-09-28T07:30:34;19.3;100.0
22674;DHT22;11504;43.334;21.918;2022-09-28T07:35:10;19.3;100.0
22674;DHT22;11504;43.334;21.918;2022-09-28T07:39:47;19.3;100.0
22674;DHT22;11504;43.334;21.918;2022-09-28T07:44:23;19.6;100.0
22674;DHT22;11504;43.334;21.918;2022-09-28T07:49:00;19.6;100.0
22674;DHT22;11504;43.334;21.918;2022-09-28T07:53:37;20.0;100.0
22674;DHT22;11504;43.334;21.918;2022-09-28T07:58:14;20.0;100.0
22674;DHT22;11504;43.334;21.918;2022-09-28T08:02:50;22.1;100.0
22674;DHT22;11504;43.334;21.918;2022-09-28T08:07:28;22.1;100.0
22674;DHT22;11504;43.334;21.918;2022-09-28T08:12:05;24.2;100.0
22674;DHT22;11504;43.334;21.918;2022-09-28T08:16:42;24.2;100.0
22674;DHT22;11504;43.334;21.918;2022-09-28T08:21:22;25.1;100.0
22674;DHT22;11504;43.334;21.918;2022-09-28T08:25:59;25.1;100.0
22674;DHT22;11504;43.334;21.918;2022-09-28T08:30:36;26.0;100.0
22674;DHT22;11504;43.334;21.918;2022-09-28T08:35:13;26.0;100.0
22674;DHT22;11504;43.334;21.918;2022-09-28T08:39:50;26.0;100.0
22674;DHT22;11504;43.334;21.918;2022-09-28T08:44:40;25.1;100.0
22674;DHT22;11504;43.334;21.918;2022-09-28T08:49:43;25.1;100.0
22674;DHT22;11504;43.334;21.918;2022-09-28T08:54:41;24.2;100.0
22674;DHT22;11504;43.334;21.918;2022-09-28T08:59:49;24.2;100.0
22674;DHT22;11504;43.334;21.918;2022-09-28T09:04:32;24.2;100.0
22674;DHT22;11504;43.334;21.918;2022-09-28T09:09:34;24.2;100.0
22674;DHT22;11504;43.334;21.918;2022-09-28T09:15:29;24.1;100.0
22674;DHT22;11504;43.334;21.918;2022-09-28T09:20:46;24.0;100.0
22674;DHT22;11504;43.334;21.918;2022-09-28T09:25:46;24.0;100.0
22674;DHT22;11504;43.334;21.918;2022-09-28T09:31:05;24.0;100.0
22674;DHT22;11504;43.334;21.918;2022-09-28T09:37:06;24.0;100.0
22674;DHT22;11504;43.334;21.918;2022-09-28T09:43:17;24.0;100.0
22674;DHT22;11504;43.334;21.918;2022-09-28T09:49:33;24.0;100.0
22674;DHT22;11504;43.334;21.918;2022-09-28T09:54:41;24.0;100.0
22674;DHT22;11504;43.334;21.918;2022-09-28T09:59:40;24.0;100.0
22674;DHT22;11504;43.334;21.918;2022-09-28T10:04:29;24.7;100.0
22674;DHT22;11504;43.334;21.918;2022-09-28T10:09:23;24.7;100.0
22674;DHT22;11504;43.334;21.918;2022-09-28T10:14:07;25.4;100.0
22674;DHT22;11504;43.334;21.918;2022-09-28T10:18:50;25.4;100.0
22674;DHT22;11504;43.334;21.918;2022-09-28T10:23:34;26.2;100.0
22674;DHT22;11504;43.334;21.918;2022-09-28T10:28:29;26.2;100.0
22674;DHT22;11504;43.334;21.918;2022-09-28T10:33:33;26.9;100.0
22674;DHT22;11504;43.334;21.918;2022-09-28T10:38:17;26.9;100.0
22674;DHT22;11504;43.334;21.918;2022-09-28T10:43:01;26.6;100.0
22674;DHT22;11504;43.334;21.918;2022-09-28T10:47:58;26.6;100.0
22674;DHT22;11504;43.334;21.918;2022-09-28T10:52:41;26.3;100.0
22674;DHT22;11504;43.334;21.918;2022-09-28T10:57:33;26.3;100.0
22674;DHT22;11504;43.334;21.918;2022-09-28T11:02:23;26.0;100.0
22674;DHT22;11504;43.334;21.918;2022-09-28T11:07:18;26.0;100.0
22674;DHT22;11504;43.334;21.918;2022-09-28T11:12:14;25.8;100.0
22674;DHT22;11504;43.334;21.918;2022-09-28T11:17:27;25.8;100.0
22674;DHT22;11504;43.334;21.918;2022-09-28T11:22:38;25.2;100.0
22674;DHT22;11504;43.334;21.918;2022-09-28T11:27:24;25.2;100.0
22674;DHT22;11504;43.334;21.918;2022-09-28T11:32:05;24.7;100.0
22674;DHT22;11504;43.334;21.918;2022-09-28T11:37:22;24.7;100.0
22674;DHT22;11504;43.334;21.918;2022-09-28T11:42:39;24.8;100.0
22674;DHT22;11504;43.334;21.918;2022-09-28T11:47:50;24.8;100.0
22674;DHT22;11504;43.334;21.918;2022-09-28T11:52:53;24.8;100.0
22674;DHT22;11504;43.334;21.918;2022-09-28T11:58:13;24.8;100.0
22674;DHT22;11504;43.334;21.918;2022-09-28T12:03:20;24.2;100.0
22674;DHT22;11504;43.334;21.918;2022-09-28T12:08:26;24.2;100.0
22674;DHT22;11504;43.334;21.918;2022-09-28T12:13:26;23.7;100.0
22674;DHT22;11504;43.334;21.918;2022-09-28T12:18:25;23.7;100.0
22674;DHT22;11504;43.334;21.918;2022-09-28T12:23:34;23.3;100.0
22674;DHT22;11504;43.334;21.918;2022-09-28T12:28:38;23.3;100.0
22674;DHT22;11504;43.334;21.918;2022-09-28T12:33:31;22.9;100.0
22674;DHT22;11504;43.334;21.918;2022-09-28T12:38:42;22.9;100.0
22674;DHT22;11504;43.334;21.918;2022-09-28T12:44:31;22.7;100.0
22674;DHT22;11504;43.334;21.918;2022-09-28T12:49:45;22.7;100.0
22674;DHT22;11504;43.334;21.918;2022-09-28T12:55:46;22.5;100.0
22674;DHT22;11504;43.334;21.918;2022-09-28T13:00:48;22.4;100.0
22674;DHT22;11504;43.334;21.918;2022-09-28T13:06:35;22.4;100.0
22674;DHT22;11504;43.334;21.918;2022-09-28T13:11:42;22.3;100.0
22674;DHT22;11504;43.334;21.918;2022-09-28T13:17:23;22.3;100.0
22674;DHT22;11504;43.334;21.918;2022-09-28T13:22:49;22.2;100.0
22674;DHT22;11504;43.334;21.918;2022-09-28T13:27:59;22.2;100.0
22674;DHT22;11504;43.334;21.918;2022-09-28T13:32:44;22.2;100.0
22674;DHT22;11504;43.334;21.918;2022-09-28T13:37:25;22.2;100.0
22674;DHT22;11504;43.334;21.918;2022-09-28T13:42:09;22.2;100.0
22674;DHT22;11504;43.334;21.918;2022-09-28T13:47:58;22.2;100.0
22674;DHT22;11504;43.334;21.918;2022-09-28T13:53:19;22.1;100.0
22674;DHT22;11504;43.334;21.918;2022-09-28T13:58:53;22.1;100.0
22674;DHT22;11504;43.334;21.918;2022-09-28T14:04:17;22.3;100.0
22674;DHT22;11504;43.334;21.918;2022-09-28T14:09:40;22.3;100.0
22674;DHT22;11504;43.334;21.918;2022-09-28T14:14:44;22.5;100.0
22674;DHT22;11504;43.334;21.918;2022-09-28T14:19:32;22.5;100.0
22674;DHT22;11504;43.334;21.918;2022-09-28T14:24:32;22.4;100.0
22674;DHT22;11504;43.334;21.918;2022-09-28T14:29:39;22.4;100.0
22674;DHT22;11504;43.334;21.918;2022-09-28T14:34:34;22.4;100.0
22674;DHT22;11504;43.334;21.918;2022-09-28T14:39:30;22.4;100.0
22674;DHT22;11504;43.334;21.918;2022-09-28T14:44:14;22.5;100.0
22674;DHT22;11504;43.334;21.918;2022-09-28T14:48:55;22.5;100.0
22674;DHT22;11504;43.334;21.918;2022-09-28T14:53:40;22.6;100.0
22674;DHT22;11504;43.334;21.918;2022-09-28T14:58:26;22.6;100.0
22674;DHT22;11504;43.334;21.918;2022-09-28T15:03:09;22.8;100.0
22674;DHT22;11504;43.334;21.918;2022-09-28T15:07:53;22.8;100.0
22674;DHT22;11504;43.334;21.918;2022-09-28T15:12:32;22.9;100.0
22674;DHT22;11504;43.334;21.918;2022-09-28T15:17:18;22.9;100.0
22674;DHT22;11504;43.334;21.918;2022-09-28T15:22:15;22.8;100.0
22674;DHT22;11504;43.334;21.918;2022-09-28T15:26:53;22.8;100.0
22674;DHT22;11504;43.334;21.918;2022-09-28T15:31:35;22.8;100.0
22674;DHT22;11504;43.334;21.918;2022-09-28T15:36:20;22.8;100.0
22674;DHT22;11504;43.334;21.918;2022-09-28T15:41:06;22.7;100.0
22674;DHT22;11504;43.334;21.918;2022-09-28T15:45:58;22.7;100.0
22674;DHT22;11504;43.334;21.918;2022-09-28T15:51:03;22.6;100.0
22674;DHT22;11504;43.334;21.918;2022-09-28T15:55:48;22.6;100.0
22674;DHT22;11504;43.334;21.918;2022-09-28T16:00:29;22.6;100.0
22674;DHT22;11504;43.334;21.918;2022-09-28T16:05:39;22.5;100.0
22674;DHT22;11504;43.334;21.918;2022-09-28T16:10:32;22.5;100.0
22674;DHT22;11504;43.334;21.918;2022-09-28T16:15:22;22.3;100.0
22674;DHT22;11504;43.334;21.918;2022-09-28T16:20:27;22.3;100.0
22674;DHT22;11504;43.334;21.918;2022-09-28T16:25:21;22.1;100.0
22674;DHT22;11504;43.334;21.918;2022-09-28T16:30:18;22.1;100.0
22674;DHT22;11504;43.334;21.918;2022-09-28T16:35:23;21.9;100.0
22674;DHT22;11504;43.334;21.918;2022-09-28T16:40:24;21.9;100.0
22674;DHT22;11504;43.334;21.918;2022-09-28T16:45:08;21.6;100.0
22674;DHT22;11504;43.334;21.918;2022-09-28T16:49:57;21.6;100.0
22674;DHT22;11504;43.334;21.918;2022-09-28T16:54:34;21.4;100.0
22674;DHT22;11504;43.334;21.918;2022-09-28T16:59:11;21.4;100.0
22674;DHT22;11504;43.334;21.918;2022-09-28T17:03:47;21.2;100.0
22674;DHT22;11504;43.334;21.918;2022-09-28T17:08:25;21.2;100.0
22674;DHT22;11504;43.334;21.918;2022-09-28T17:13:03;21.1;100.0
22674;DHT22;11504;43.334;21.918;2022-09-28T17:17:40;21.1;100.0
22674;DHT22;11504;43.334;21.918;2022-09-28T17:22:16;21.0;100.0
22674;DHT22;11504;43.334;21.918;2022-09-28T17:26:53;21.0;100.0
22674;DHT22;11504;43.334;21.918;2022-09-28T17:31:31;20.9;100.0
22674;DHT22;11504;43.334;21.918;2022-09-28T17:36:14;20.9;100.0
22674;DHT22;11504;43.334;21.918;2022-09-28T17:40:54;20.8;100.0
22674;DHT22;11504;43.334;21.918;2022-09-28T17:45:35;20.8;100.0
22674;DHT22;11504;43.334;21.918;2022-09-28T17:50:24;20.8;100.0
22674;DHT22;11504;43.334;21.918;2022-09-28T17:55:09;20.8;100.0
22674;DHT22;11504;43.334;21.918;2022-09-28T17:59:45;20.8;100.0
22674;DHT22;11504;43.334;21.918;2022-09-28T18:04:22;20.6;100.0
22674;DHT22;11504;43.334;21.918;2022-09-28T18:08:58;20.6;100.0
22674;DHT22;11504;43.334;21.918;2022-09-28T18:13:37;20.4;100.0
22674;DHT22;11504;43.334;21.918;2022-09-28T18:18:13;20.4;100.0
22674;DHT22;11504;43.334;21.918;2022-09-28T18:22:50;20.3;100.0
22674;DHT22;11504;43.334;21.918;2022-09-28T18:27:28;20.3;100.0
22674;DHT22;11504;43.334;21.918;2022-09-28T18:32:05;20.2;100.0
22674;DHT22;11504;43.334;21.918;2022-09-28T18:36:42;20.2;100.0
22674;DHT22;11504;43.334;21.918;2022-09-28T18:41:19;20.0;100.0
22674;DHT22;11504;43.334;21.918;2022-09-28T18:45:55;20.0;100.0
22674;DHT22;11504;43.334;21.918;2022-09-28T18:50:32;20.0;100.0
22674;DHT22;11504;43.334;21.918;2022-09-28T18:55:11;19.8;100.0
22674;DHT22;11504;43.334;21.918;2022-09-28T18:59:49;19.8;100.0
22674;DHT22;11504;43.334;21.918;2022-09-28T19:04:26;19.6;100.0
22674;DHT22;11504;43.334;21.918;2022-09-28T19:09:03;19.6;100.0
22674;DHT22;11504;43.334;21.918;2022-09-28T19:13:42;19.5;100.0
22674;DHT22;11504;43.334;21.918;2022-09-28T19:18:19;19.5;100.0
22674;DHT22;11504;43.334;21.918;2022-09-28T19:22:56;19.3;100.0
22674;DHT22;11504;43.334;21.918;2022-09-28T19:27:33;19.3;100.0
22674;DHT22;11504;43.334;21.918;2022-09-28T19:32:11;19.1;100.0
22674;DHT22;11504;43.334;21.918;2022-09-28T19:36:48;19.1;100.0
22674;DHT22;11504;43.334;21.918;2022-09-28T19:41:28;19.0;100.0
22674;DHT22;11504;43.334;21.918;2022-09-28T19:46:08;19.0;100.0
22674;DHT22;11504;43.334;21.918;2022-09-28T19:50:53;18.8;100.0
22674;DHT22;11504;43.334;21.918;2022-09-28T19:55:31;18.8;100.0
22674;DHT22;11504;43.334;21.918;2022-09-28T20:00:10;18.8;100.0
22674;DHT22;11504;43.334;21.918;2022-09-28T20:04:48;18.8;100.0
22674;DHT22;11504;43.334;21.918;2022-09-28T20:09:25;18.8;100.0
22674;DHT22;11504;43.334;21.918;2022-09-28T20:14:07;18.7;100.0
22674;DHT22;11504;43.334;21.918;2022-09-28T20:18:46;18.7;100.0
22674;DHT22;11504;43.334;21.918;2022-09-28T20:23:23;18.5;100.0
22674;DHT22;11504;43.334;21.918;2022-09-28T20:28:00;18.5;100.0
22674;DHT22;11504;43.334;21.918;2022-09-28T20:32:38;18.4;100.0
22674;DHT22;11504;43.334;21.918;2022-09-28T20:37:15;18.4;100.0
22674;DHT22;11504;43.334;21.918;2022-09-28T20:41:51;18.4;100.0
22674;DHT22;11504;43.334;21.918;2022-09-28T20:46:28;18.4;100.0
22674;DHT22;11504;43.334;21.918;2022-09-28T20:51:11;18.4;100.0
22674;DHT22;11504;43.334;21.918;2022-09-28T20:55:58;18.4;100.0
22674;DHT22;11504;43.334;21.918;2022-09-28T21:00:36;18.4;100.0
22674;DHT22;11504;43.334;21.918;2022-09-28T21:05:12;18.4;100.0
22674;DHT22;11504;43.334;21.918;2022-09-28T21:09:49;18.4;100.0
22674;DHT22;11504;43.334;21.918;2022-09-28T21:14:25;18.3;100.0
22674;DHT22;11504;43.334;21.918;2022-09-28T21:19:03;18.3;100.0
22674;DHT22;11504;43.334;21.918;2022-09-28T21:23:41;18.4;100.0
22674;DHT22;11504;43.334;21.918;2022-09-28T21:28:19;18.4;100.0
22674;DHT22;11504;43.334;21.918;2022-09-28T21:32:56;18.4;100.0
22674;DHT22;11504;43.334;21.918;2022-09-28T21:37:32;18.4;100.0
22674;DHT22;11504;43.334;21.918;2022-09-28T21:42:09;18.4;100.0
22674;DHT22;11504;43.334;21.918;2022-09-28T21:46:46;18.4;100.0
22674;DHT22;11504;43.334;21.918;2022-09-28T21:51:23;18.5;100.0
22674;DHT22;11504;43.334;21.918;2022-09-28T21:56:06;18.5;100.0
22674;DHT22;11504;43.334;21.918;2022-09-28T22:00:51;18.5;100.0
22674;DHT22;11504;43.334;21.918;2022-09-28T22:05:41;18.4;100.0
22674;DHT22;11504;43.334;21.918;2022-09-28T22:10:18;18.4;100.0
22674;DHT22;11504;43.334;21.918;2022-09-28T22:14:55;18.3;100.0
22674;DHT22;11504;43.334;21.918;2022-09-28T22:19:32;18.3;100.0
22674;DHT22;11504;43.334;21.918;2022-09-28T22:24:09;18.2;100.0
22674;DHT22;11504;43.334;21.918;2022-09-28T22:28:51;18.2;100.0
22674;DHT22;11504;43.334;21.918;2022-09-28T22:33:32;18.1;100.0
22674;DHT22;11504;43.334;21.918;2022-09-28T22:38:09;18.1;100.0
22674;DHT22;11504;43.334;21.918;2022-09-28T22:42:45;17.6;100.0
22674;DHT22;11504;43.334;21.918;2022-09-28T22:47:22;17.6;100.0
22674;DHT22;11504;43.334;21.918;2022-09-28T22:52:00;17.2;100.0
22674;DHT22;11504;43.334;21.918;2022-09-28T22:56:36;17.2;100.0
22674;DHT22;11504;43.334;21.918;2022-09-28T23:01:18;17.2;100.0
22674;DHT22;11504;43.334;21.918;2022-09-28T23:06:01;17.2;100.0
22674;DHT22;11504;43.334;21.918;2022-09-28T23:10:41;17.2;100.0
22674;DHT22;11504;43.334;21.918;2022-09-28T23:15:17;17.1;100.0
22674;DHT22;11504;43.334;21.918;2022-09-28T23:19:54;17.1;100.0
22674;DHT22;11504;43.334;21.918;2022-09-28T23:24:31;17.2;100.0
22674;DHT22;11504;43.334;21.918;2022-09-28T23:29:10;17.2;100.0
22674;DHT22;11504;43.334;21.918;2022-09-28T23:33:47;17.2;100.0
22674;DHT22;11504;43.334;21.918;2022-09-28T23:38:24;17.2;100.0
22674;DHT22;11504;43.334;21.918;2022-09-28T23:43:00;17.2;100.0
22674;DHT22;11504;43.334;21.918;2022-09-28T23:47:37;17.2;100.0
22674;DHT22;11504;43.334;21.918;2022-09-28T23:52:13;17.2;100.0
22674;DHT22;11504;43.334;21.918;2022-09-28T23:56:50;17.2;100.0
